Terminal Aerodrome Forecast
Issued by NWS Knoxville/Tri Cities, TN

Home | Current Version | Previous Version | Text Only | Print | Product List | Glossary On
Versions: 1 2 3 4 5 6 7 8 9 10 11 12 13 14 15 16 17 18 19 20 21 22 23 24 25 26 27 28 29 30 31 32 33 34 35 36 37 38 39 40 41 42 43 44 45 46 47 48 49 50
000
FTUS44 KMRX 190520
TAFCHA
TAF
KCHA 190520Z 1906/2006 04004KT P6SM VCSH OVC025
     FM190900 12006KT 3SM SHRA VCTS OVC012CB
      TEMPO 1910/1914 1SM +TSRA OVC007CB
     FM191400 17010KT 5SM -SHRA VCTS OVC020CB
     FM191800 19010G20KT P6SM BKN035
     FM200000 20012KT 3SM -TSRA OVC035CB=

USA.gov is the U.S. government's official web portal to all federal, state and local government web resources and services.